createdAt,value
2023-12-20T00:01:35.760Z,73.30
2023-12-20T00:03:42.133Z,73.40
2023-12-20T00:05:45.051Z,73.40
2023-12-20T00:07:47.128Z,73.40
2023-12-20T00:09:49.140Z,73.40
2023-12-20T00:11:50.986Z,73.40
2023-12-20T00:13:52.995Z,73.50
2023-12-20T00:15:54.814Z,73.70
2023-12-20T00:17:56.705Z,73.70
2023-12-20T00:19:58.641Z,73.70
2023-12-20T00:22:01.095Z,73.70
2023-12-20T00:24:02.928Z,73.70
2023-12-20T00:26:04.761Z,73.70
2023-12-20T00:28:07.292Z,73.90
2023-12-20T00:30:09.605Z,73.80
2023-12-20T00:32:11.365Z,73.40
2023-12-20T00:34:13.273Z,73.30
2023-12-20T00:36:15.076Z,73.30
2023-12-20T00:38:16.827Z,73.40
2023-12-20T00:40:18.698Z,73.50
2023-12-20T00:42:20.506Z,73.30
2023-12-20T00:44:22.194Z,73.10
2023-12-20T00:46:24.002Z,73.00
2023-12-20T00:48:28.002Z,73.10
2023-12-20T00:50:30.574Z,73.20
2023-12-20T00:52:32.528Z,73.30
2023-12-20T00:54:34.270Z,73.10
2023-12-20T00:56:36.365Z,73.10
2023-12-20T00:58:38.071Z,73.10
2023-12-20T01:00:42.357Z,73.10
2023-12-20T01:02:47.688Z,73.10
2023-12-20T01:04:49.413Z,73.00
2023-12-20T01:06:51.206Z,73.10
2023-12-20T01:08:52.965Z,72.90
2023-12-20T01:10:54.702Z,73.00
2023-12-20T01:12:56.455Z,73.10
2023-12-20T01:14:59.638Z,72.90
2023-12-20T01:17:01.443Z,73.30
2023-12-20T01:19:03.310Z,73.30
2023-12-20T01:21:05.332Z,73.50
2023-12-20T01:23:07.298Z,73.50
2023-12-20T01:25:09.287Z,73.40
2023-12-20T01:27:11.197Z,73.50
2023-12-20T01:29:14.133Z,73.40
2023-12-20T01:31:15.975Z,73.30
2023-12-20T01:33:17.772Z,73.20
2023-12-20T01:35:19.756Z,73.10
2023-12-20T01:37:21.799Z,72.90
2023-12-20T01:39:28.154Z,72.80
2023-12-20T01:41:31.833Z,72.90
2023-12-20T01:43:41.118Z,73.00
2023-12-20T01:45:49.682Z,73.10
2023-12-20T01:47:51.710Z,73.20
2023-12-20T01:49:53.701Z,73.20
2023-12-20T01:51:55.708Z,73.30
2023-12-20T01:53:58.760Z,73.20
2023-12-20T01:56:01.175Z,73.30
2023-12-20T01:58:03.625Z,72.90
2023-12-20T02:00:05.856Z,73.00
2023-12-20T02:02:08.701Z,72.80
2023-12-20T02:04:10.529Z,72.70
2023-12-20T02:06:12.564Z,72.80
2023-12-20T02:08:14.504Z,72.80
2023-12-20T02:10:17.176Z,72.50
2023-12-20T02:12:19.738Z,72.50
2023-12-20T02:14:21.538Z,72.70
2023-12-20T02:16:23.572Z,72.80
2023-12-20T02:18:25.767Z,72.80
2023-12-20T02:20:27.528Z,72.80
2023-12-20T02:22:29.285Z,72.70
2023-12-20T02:24:30.974Z,72.80
2023-12-20T02:26:35.792Z,72.80
2023-12-20T02:28:37.563Z,72.70
2023-12-20T02:30:41.897Z,72.80
2023-12-20T02:32:43.666Z,73.00
2023-12-20T02:34:45.654Z,73.10
2023-12-20T02:36:47.478Z,73.00
2023-12-20T02:38:49.215Z,72.70
2023-12-20T02:40:50.951Z,72.70
2023-12-20T02:42:52.747Z,72.80
2023-12-20T02:44:54.469Z,72.80
2023-12-20T02:46:56.214Z,72.80
2023-12-20T02:48:58.039Z,72.90
2023-12-20T02:51:00.105Z,72.70
2023-12-20T02:53:01.874Z,72.80
2023-12-20T02:55:03.679Z,72.70
2023-12-20T02:57:05.391Z,72.80
2023-12-20T02:59:09.319Z,72.70
2023-12-20T03:01:11.146Z,72.80
2023-12-20T03:03:12.865Z,72.90
2023-12-20T03:05:14.684Z,72.80
2023-12-20T03:07:16.571Z,73.00
2023-12-20T03:09:18.309Z,72.90
2023-12-20T03:11:20.022Z,72.90
2023-12-20T03:13:21.909Z,72.80
2023-12-20T03:15:23.721Z,73.00
2023-12-20T03:17:25.549Z,72.80
2023-12-20T03:19:27.363Z,72.80
2023-12-20T03:21:29.166Z,72.80
2023-12-20T03:23:31.714Z,72.70
2023-12-20T03:25:33.547Z,72.70
2023-12-20T03:27:35.285Z,72.70
2023-12-20T03:29:37.068Z,72.70
2023-12-20T03:31:38.832Z,72.80
2023-12-20T03:33:40.851Z,72.90
2023-12-20T03:35:42.573Z,73.00
2023-12-20T03:37:44.632Z,73.00
2023-12-20T03:39:46.516Z,72.80
2023-12-20T03:41:48.270Z,72.80
2023-12-20T03:43:49.948Z,73.00
2023-12-20T03:45:51.737Z,73.10
2023-12-20T03:47:57.763Z,73.20
2023-12-20T03:49:59.686Z,73.10
2023-12-20T03:52:01.546Z,73.20
2023-12-20T03:54:03.316Z,72.90
2023-12-20T03:56:05.811Z,73.00
2023-12-20T03:58:07.564Z,73.10
2023-12-20T04:00:13.393Z,73.30
2023-12-20T04:02:15.149Z,73.40
2023-12-20T04:04:16.899Z,73.10
2023-12-20T04:06:19.356Z,73.10
2023-12-20T04:08:21.240Z,73.00
2023-12-20T04:10:22.988Z,72.90
2023-12-20T04:12:24.701Z,72.90
2023-12-20T04:14:26.451Z,72.70
2023-12-20T04:16:28.187Z,72.70
2023-12-20T04:18:30.087Z,72.70
2023-12-20T04:20:31.863Z,72.80
2023-12-20T04:22:33.565Z,73.00
2023-12-20T04:24:35.337Z,73.10
2023-12-20T04:26:37.244Z,73.40
2023-12-20T04:28:38.940Z,73.30
2023-12-20T04:30:40.711Z,73.50
2023-12-20T04:32:42.533Z,73.60
2023-12-20T04:34:44.266Z,73.70
2023-12-20T04:36:46.294Z,73.60
2023-12-20T04:38:48.013Z,73.70
2023-12-20T04:40:49.801Z,73.70
2023-12-20T04:42:51.528Z,73.50
2023-12-20T04:44:53.282Z,73.30
2023-12-20T04:46:55.077Z,73.10
2023-12-20T04:48:56.904Z,73.10
2023-12-20T04:50:58.656Z,73.20
2023-12-20T04:53:01.001Z,73.40
2023-12-20T04:55:02.773Z,73.70
2023-12-20T04:57:04.867Z,73.70
2023-12-20T04:59:06.871Z,73.70
2023-12-20T05:01:09.434Z,73.60
2023-12-20T05:03:11.315Z,73.70
2023-12-20T05:05:13.534Z,73.80
2023-12-20T05:07:15.355Z,73.80
2023-12-20T05:09:17.366Z,73.70
2023-12-20T05:11:19.130Z,73.70
2023-12-20T05:13:20.877Z,73.70
2023-12-20T05:15:22.615Z,73.70
2023-12-20T05:17:24.364Z,73.80
2023-12-20T05:19:26.345Z,73.70
2023-12-20T05:21:28.241Z,73.80
2023-12-20T05:23:29.957Z,73.80
2023-12-20T05:25:31.774Z,74.00
2023-12-20T05:27:33.492Z,74.00
2023-12-20T05:29:35.213Z,73.90
2023-12-20T05:31:37.049Z,74.10
2023-12-20T05:33:38.996Z,74.20
2023-12-20T05:35:40.817Z,74.60
2023-12-20T05:37:43.046Z,74.60
2023-12-20T05:39:44.934Z,74.60
2023-12-20T05:41:46.642Z,74.60
2023-12-20T05:43:48.409Z,74.70
2023-12-20T05:45:50.193Z,74.80
2023-12-20T05:47:52.065Z,74.80
2023-12-20T05:49:54.163Z,74.70
2023-12-20T05:51:55.903Z,74.60
2023-12-20T05:53:57.655Z,74.50
2023-12-20T05:55:59.439Z,74.50
2023-12-20T05:58:02.520Z,74.50
2023-12-20T06:00:04.847Z,74.60
2023-12-20T06:02:13.979Z,74.40
2023-12-20T06:04:15.839Z,74.40
2023-12-20T06:06:18.822Z,74.40
2023-12-20T06:08:20.715Z,74.30
2023-12-20T06:10:23.245Z,74.50
2023-12-20T06:12:27.612Z,74.20
2023-12-20T06:14:29.304Z,74.30
2023-12-20T06:16:31.258Z,74.20
2023-12-20T06:18:33.068Z,74.30
2023-12-20T06:20:34.848Z,74.20
2023-12-20T06:22:37.471Z,74.20
2023-12-20T06:24:39.253Z,74.10
2023-12-20T06:26:41.029Z,74.20
2023-12-20T06:28:42.796Z,74.00
2023-12-20T06:30:44.843Z,74.00
2023-12-20T06:32:50.078Z,74.00
2023-12-20T06:34:54.950Z,74.00
2023-12-20T06:36:56.771Z,74.10
2023-12-20T06:38:59.083Z,74.20
2023-12-20T06:41:01.030Z,74.20
2023-12-20T06:43:09.127Z,74.20
2023-12-20T06:45:18.007Z,74.10
2023-12-20T06:47:19.702Z,74.10
2023-12-20T06:49:21.522Z,74.20
2023-12-20T06:51:26.488Z,74.20
2023-12-20T06:53:28.227Z,74.10
2023-12-20T06:55:30.742Z,74.00
2023-12-20T06:57:32.546Z,74.10
2023-12-20T06:59:34.262Z,74.00
2023-12-20T07:01:36.111Z,73.90
2023-12-20T07:03:41.314Z,73.80
2023-12-20T07:05:43.160Z,73.50
2023-12-20T07:07:45.124Z,73.40
2023-12-20T07:09:47.060Z,73.40
2023-12-20T07:11:49.073Z,73.40
2023-12-20T07:14:22.194Z,73.30
2023-12-20T07:16:26.180Z,73.20
2023-12-20T07:18:28.159Z,73.10
2023-12-20T07:20:29.983Z,73.10
2023-12-20T07:22:34.507Z,73.00
2023-12-20T07:24:36.322Z,73.00
2023-12-20T07:26:39.192Z,72.90
2023-12-20T07:28:41.824Z,72.90
2023-12-20T07:30:43.828Z,73.00
2023-12-20T07:32:45.752Z,72.90
2023-12-20T07:34:47.728Z,73.10
2023-12-20T07:36:49.720Z,73.10
2023-12-20T07:38:51.730Z,73.10
2023-12-20T07:40:53.470Z,73.10
2023-12-20T07:42:55.250Z,73.00
2023-12-20T07:44:57.126Z,72.90
2023-12-20T07:46:59.139Z,73.00
2023-12-20T07:49:01.048Z,72.90
2023-12-20T07:51:03.268Z,72.70
2023-12-20T07:53:05.238Z,72.60
2023-12-20T07:55:07.374Z,72.50
2023-12-20T07:57:09.189Z,72.40
2023-12-20T07:59:18.961Z,72.40
2023-12-20T08:01:27.583Z,72.40
2023-12-20T08:03:29.482Z,72.40
2023-12-20T08:05:31.399Z,72.50
2023-12-20T08:07:33.337Z,72.50
2023-12-20T08:09:37.863Z,72.50
2023-12-20T08:11:39.676Z,72.60
2023-12-20T08:13:41.426Z,72.70
2023-12-20T08:15:43.410Z,72.80
2023-12-20T08:17:45.656Z,73.00
2023-12-20T08:19:47.713Z,73.10
2023-12-20T08:21:49.590Z,73.00
2023-12-20T08:23:51.480Z,73.00
2023-12-20T08:25:53.254Z,73.10
2023-12-20T08:27:55.076Z,73.20
2023-12-20T08:29:56.830Z,73.20
2023-12-20T08:31:58.744Z,73.20
2023-12-20T08:34:00.707Z,73.40
2023-12-20T08:36:06.380Z,73.40
2023-12-20T08:38:08.318Z,73.30
2023-12-20T08:40:10.448Z,73.30
2023-12-20T08:42:12.363Z,73.30
2023-12-20T08:44:14.401Z,73.20
2023-12-20T08:46:16.659Z,73.00
2023-12-20T08:48:18.512Z,72.80
2023-12-20T08:50:20.521Z,72.60
2023-12-20T08:52:22.564Z,72.50
2023-12-20T08:54:24.323Z,72.50
2023-12-20T08:56:26.087Z,72.60
2023-12-20T08:58:28.134Z,72.70
2023-12-20T09:00:30.960Z,72.60
2023-12-20T09:02:32.788Z,72.60
2023-12-20T09:04:34.729Z,72.50
2023-12-20T09:06:36.578Z,72.50
2023-12-20T09:08:38.435Z,72.60
2023-12-20T09:10:40.284Z,72.60
2023-12-20T09:12:43.895Z,72.60
2023-12-20T09:14:45.956Z,72.60
2023-12-20T09:16:47.777Z,72.70
2023-12-20T09:18:49.773Z,72.80
2023-12-20T09:20:51.725Z,72.80
2023-12-20T09:22:53.574Z,72.80
2023-12-20T09:24:55.295Z,72.80
2023-12-20T09:26:57.123Z,73.00
2023-12-20T09:28:58.988Z,73.20
2023-12-20T09:31:00.890Z,73.00
2023-12-20T09:33:03.006Z,72.70
2023-12-20T09:35:06.971Z,72.50
2023-12-20T09:37:09.178Z,72.40
2023-12-20T09:39:11.050Z,72.40
2023-12-20T09:41:12.860Z,72.30
2023-12-20T09:43:19.816Z,72.30
2023-12-20T09:45:24.783Z,72.30
2023-12-20T09:47:27.113Z,72.30
2023-12-20T09:49:29.157Z,72.40
2023-12-20T09:51:31.159Z,72.40
2023-12-20T09:53:35.148Z,72.30
2023-12-20T09:55:37.103Z,72.40
2023-12-20T09:57:38.863Z,72.40
2023-12-20T09:59:41.321Z,72.40
2023-12-20T10:01:44.472Z,72.40
2023-12-20T10:03:46.399Z,72.40
2023-12-20T10:05:50.702Z,72.50
2023-12-20T10:07:52.957Z,72.60
2023-12-20T10:09:55.547Z,72.70
2023-12-20T10:11:58.425Z,72.90
2023-12-20T10:14:01.499Z,72.90
2023-12-20T10:16:03.846Z,72.80
2023-12-20T10:18:06.300Z,72.70
2023-12-20T10:20:11.218Z,72.50
2023-12-20T10:22:13.354Z,72.50
2023-12-20T10:24:18.994Z,72.60
2023-12-20T10:26:22.296Z,72.80
2023-12-20T10:28:31.407Z,72.80
2023-12-20T10:30:33.256Z,72.80
2023-12-20T10:32:35.195Z,72.70
2023-12-20T10:34:37.168Z,72.70
2023-12-20T10:36:39.385Z,72.70
2023-12-20T10:38:43.510Z,72.50
2023-12-20T10:40:46.544Z,72.40
2023-12-20T10:42:48.501Z,72.40
2023-12-20T10:44:51.408Z,72.30
2023-12-20T10:46:59.100Z,72.30
2023-12-20T10:49:03.651Z,72.30
2023-12-20T10:51:06.032Z,72.20
2023-12-20T10:53:07.991Z,72.30
2023-12-20T10:55:10.322Z,72.30
2023-12-20T10:57:12.561Z,72.40
2023-12-20T10:59:18.190Z,72.40
2023-12-20T11:01:21.498Z,72.40
2023-12-20T11:03:26.144Z,72.40
2023-12-20T11:05:30.793Z,72.40
2023-12-20T11:07:51.083Z,72.40
2023-12-20T11:10:16.440Z,72.40
2023-12-20T11:12:21.270Z,72.40
2023-12-20T11:14:34.175Z,72.30
2023-12-20T11:16:45.479Z,72.20
2023-12-20T11:18:54.219Z,72.10
2023-12-20T11:20:55.972Z,72.00
2023-12-20T11:22:58.801Z,72.10
2023-12-20T11:25:04.501Z,71.90
2023-12-20T11:27:06.312Z,71.70
2023-12-20T11:29:26.891Z,71.70
2023-12-20T11:31:28.663Z,71.70
2023-12-20T11:33:31.282Z,71.70
2023-12-20T11:35:33.165Z,71.80
2023-12-20T11:37:38.844Z,71.70
2023-12-20T11:39:40.740Z,71.50
2023-12-20T11:41:45.657Z,71.60
2023-12-20T11:43:47.646Z,71.70
2023-12-20T11:45:51.730Z,71.70
2023-12-20T11:47:56.604Z,71.60
2023-12-20T11:49:58.561Z,71.70
2023-12-20T11:52:01.588Z,71.70
2023-12-20T11:54:03.583Z,71.70
2023-12-20T11:56:07.306Z,71.80
2023-12-20T11:58:10.454Z,71.70
2023-12-20T12:00:12.524Z,71.60
2023-12-20T12:02:14.963Z,71.50
2023-12-20T12:04:18.660Z,71.40
2023-12-20T12:06:20.600Z,71.30
2023-12-20T12:08:22.419Z,71.20
2023-12-20T12:10:24.266Z,71.30
2023-12-20T12:12:30.588Z,71.40
2023-12-20T12:14:32.298Z,71.30
2023-12-20T12:16:34.445Z,71.20
2023-12-20T12:18:36.655Z,71.40
2023-12-20T12:20:38.943Z,71.40
2023-12-20T12:22:41.083Z,71.50
2023-12-20T12:24:46.407Z,71.70
2023-12-20T12:26:52.352Z,72.00
2023-12-20T12:28:54.115Z,71.90
2023-12-20T12:30:59.800Z,71.80
2023-12-20T12:33:02.180Z,71.50
2023-12-20T12:35:10.709Z,71.50
2023-12-20T12:37:13.749Z,71.60
2023-12-20T12:39:18.904Z,72.50
2023-12-20T12:41:20.651Z,71.70
2023-12-20T12:43:24.087Z,71.80
2023-12-20T12:45:28.026Z,71.90
2023-12-20T12:47:29.915Z,71.80
2023-12-20T12:49:31.850Z,71.60
2023-12-20T12:51:33.595Z,71.60
2023-12-20T12:53:35.410Z,71.50
2023-12-20T12:55:37.758Z,71.50
2023-12-20T12:57:39.615Z,71.50
2023-12-20T12:59:41.711Z,71.60
2023-12-20T13:01:43.691Z,71.60
2023-12-20T13:03:45.783Z,71.50
2023-12-20T13:05:48.805Z,72.20
2023-12-20T13:07:51.096Z,71.40
2023-12-20T13:09:53.129Z,71.10
2023-12-20T13:11:56.011Z,71.30
2023-12-20T13:13:58.793Z,71.20
2023-12-20T13:16:02.161Z,71.10
2023-12-20T13:18:05.835Z,71.20
2023-12-20T13:20:08.101Z,71.00
2023-12-20T13:22:09.975Z,71.20
2023-12-20T13:24:11.863Z,71.10
2023-12-20T13:26:13.744Z,71.30
2023-12-20T13:28:15.646Z,71.30
2023-12-20T13:30:18.387Z,71.50
2023-12-20T13:32:21.242Z,71.70
2023-12-20T13:34:23.376Z,71.80
2023-12-20T13:36:25.168Z,71.70
2023-12-20T13:38:26.976Z,71.50
2023-12-20T13:40:29.894Z,71.40
2023-12-20T13:42:31.766Z,71.50
2023-12-20T13:44:33.681Z,71.70
2023-12-20T13:46:35.454Z,71.70
2023-12-20T13:48:37.227Z,71.50
2023-12-20T13:50:39.110Z,71.60
2023-12-20T13:52:41.013Z,71.60
2023-12-20T13:54:42.896Z,71.50
2023-12-20T13:56:52.569Z,71.40
2023-12-20T13:59:04.671Z,71.30
2023-12-20T14:01:06.550Z,71.30
2023-12-20T14:03:08.603Z,71.20
2023-12-20T14:05:11.494Z,71.20
2023-12-20T14:07:13.821Z,70.90
2023-12-20T14:09:15.734Z,70.90
2023-12-20T14:11:17.557Z,70.80
2023-12-20T14:13:19.393Z,70.80
2023-12-20T14:15:21.224Z,71.60
2023-12-20T14:17:23.434Z,70.80
2023-12-20T14:19:25.283Z,70.80
2023-12-20T14:21:27.174Z,70.80
2023-12-20T14:23:28.929Z,70.80
2023-12-20T14:25:33.827Z,70.80
2023-12-20T14:27:41.546Z,70.80
2023-12-20T14:29:43.407Z,71.00
2023-12-20T14:31:45.305Z,71.00
2023-12-20T14:33:47.356Z,71.00
2023-12-20T14:35:49.299Z,71.00
2023-12-20T14:37:51.569Z,71.00
2023-12-20T14:39:53.484Z,70.80
2023-12-20T14:41:55.596Z,70.90
2023-12-20T14:43:57.492Z,71.00
2023-12-20T14:45:59.432Z,70.90
2023-12-20T14:48:01.576Z,71.00
2023-12-20T14:50:04.041Z,71.00
2023-12-20T14:52:06.201Z,71.00
2023-12-20T14:54:11.572Z,71.10
2023-12-20T14:56:13.574Z,71.00
2023-12-20T14:58:16.722Z,71.00
2023-12-20T15:00:19.012Z,71.10
2023-12-20T15:02:20.899Z,71.10
2023-12-20T15:04:29.533Z,71.00
2023-12-20T15:06:33.009Z,71.10
2023-12-20T15:08:34.969Z,71.10
2023-12-20T15:10:37.208Z,71.20
2023-12-20T15:12:39.071Z,71.20
2023-12-20T15:14:41.135Z,71.30
2023-12-20T15:16:43.049Z,71.30
2023-12-20T15:18:44.813Z,71.30
2023-12-20T15:20:46.852Z,71.20
2023-12-20T15:22:48.704Z,71.10
2023-12-20T15:24:52.322Z,71.20
2023-12-20T15:26:54.619Z,71.40
2023-12-20T15:28:57.422Z,71.50
2023-12-20T15:30:59.336Z,71.50
2023-12-20T15:33:03.327Z,71.40
2023-12-20T15:35:06.938Z,71.30
2023-12-20T15:37:08.958Z,71.30
2023-12-20T15:39:10.867Z,71.20
2023-12-20T15:41:22.481Z,71.10
2023-12-20T15:43:24.402Z,71.10
2023-12-20T15:45:26.287Z,71.00
2023-12-20T15:47:28.631Z,71.00
2023-12-20T15:49:30.562Z,71.00
2023-12-20T15:51:32.577Z,71.00
2023-12-20T15:53:34.419Z,71.00
2023-12-20T15:55:36.343Z,71.00
2023-12-20T15:57:45.722Z,70.80
2023-12-20T15:59:54.106Z,71.10
2023-12-20T16:01:56.030Z,71.20
2023-12-20T16:03:59.686Z,71.10
2023-12-20T16:06:02.119Z,71.20
2023-12-20T16:08:04.483Z,71.20
2023-12-20T16:10:06.537Z,71.20
2023-12-20T16:12:08.488Z,71.20
2023-12-20T16:14:14.236Z,71.20
2023-12-20T16:16:16.184Z,71.10
2023-12-20T16:18:18.058Z,71.00
2023-12-20T16:20:19.949Z,71.00
2023-12-20T16:22:22.037Z,71.10
2023-12-20T16:24:23.882Z,71.20
2023-12-20T16:26:25.880Z,71.20
2023-12-20T16:28:27.815Z,71.30
2023-12-20T16:30:29.732Z,71.30
2023-12-20T16:32:31.623Z,71.30
2023-12-20T16:34:34.055Z,71.20
2023-12-20T16:36:51.857Z,71.30
2023-12-20T16:38:53.669Z,71.30
2023-12-20T16:40:56.206Z,71.30
2023-12-20T16:42:58.289Z,71.30
2023-12-20T16:45:00.374Z,71.20
2023-12-20T16:47:02.233Z,71.30
2023-12-20T16:49:04.061Z,71.40
2023-12-20T16:51:05.966Z,71.50
2023-12-20T16:53:07.807Z,72.30
2023-12-20T16:55:10.235Z,71.50
2023-12-20T16:57:12.060Z,71.40
2023-12-20T16:59:13.929Z,71.50
2023-12-20T17:01:16.822Z,71.60
2023-12-20T17:03:21.093Z,71.70
2023-12-20T17:05:23.113Z,71.70
2023-12-20T17:07:24.944Z,71.70
2023-12-20T17:09:29.974Z,71.60
2023-12-20T17:11:33.212Z,71.40
2023-12-20T17:13:35.194Z,71.50
2023-12-20T17:15:36.995Z,71.40
2023-12-20T17:17:39.041Z,71.40
2023-12-20T17:19:42.625Z,71.30
2023-12-20T17:21:44.705Z,71.40
2023-12-20T17:23:46.637Z,71.40
2023-12-20T17:25:48.431Z,71.30
2023-12-20T17:27:50.418Z,71.30
2023-12-20T17:29:52.262Z,72.00
2023-12-20T17:31:54.199Z,71.20
2023-12-20T17:33:56.177Z,71.30
2023-12-20T17:35:58.106Z,71.30
2023-12-20T17:37:59.991Z,71.20
2023-12-20T17:40:01.915Z,71.30
2023-12-20T17:42:04.102Z,71.30
2023-12-20T17:44:06.245Z,71.40
2023-12-20T17:46:08.086Z,71.40
2023-12-20T17:48:09.998Z,71.40
2023-12-20T17:50:11.941Z,71.50
2023-12-20T17:52:13.910Z,71.50
2023-12-20T17:54:15.765Z,71.60
2023-12-20T17:56:18.286Z,71.70
2023-12-20T17:58:21.621Z,71.70
2023-12-20T18:00:28.791Z,71.70
2023-12-20T18:02:30.592Z,71.60
2023-12-20T18:04:32.510Z,71.70
2023-12-20T18:06:34.426Z,71.70
2023-12-20T18:08:37.090Z,71.70
2023-12-20T18:10:39.057Z,71.60
2023-12-20T18:12:41.002Z,71.50
2023-12-20T18:14:44.933Z,71.50
2023-12-20T18:16:46.914Z,71.50
2023-12-20T18:18:49.151Z,72.20
2023-12-20T18:20:51.641Z,71.30
2023-12-20T18:22:53.563Z,71.30
2023-12-20T18:24:56.913Z,71.20
2023-12-20T18:26:58.732Z,71.20
2023-12-20T18:29:00.551Z,71.30
2023-12-20T18:31:02.452Z,71.40
2023-12-20T18:33:04.578Z,71.40
2023-12-20T18:35:06.571Z,71.40
2023-12-20T18:37:12.018Z,71.50
2023-12-20T18:39:13.883Z,71.50
2023-12-20T18:41:15.786Z,71.40
2023-12-20T18:43:17.703Z,71.60
2023-12-20T18:45:19.519Z,71.80
2023-12-20T18:47:21.341Z,71.90
2023-12-20T18:49:23.273Z,71.90
2023-12-20T18:51:25.215Z,71.80
2023-12-20T18:53:27.299Z,71.80
2023-12-20T18:55:29.139Z,71.90
2023-12-20T18:57:30.944Z,71.90
2023-12-20T18:59:32.699Z,72.00
2023-12-20T19:01:34.596Z,72.00
2023-12-20T19:03:36.477Z,71.90
2023-12-20T19:05:38.502Z,71.90
2023-12-20T19:07:40.384Z,71.80
2023-12-20T19:09:42.233Z,71.70
2023-12-20T19:11:43.996Z,71.70
2023-12-20T19:13:45.887Z,72.00
2023-12-20T19:15:48.391Z,72.00
2023-12-20T19:17:51.755Z,71.80
2023-12-20T19:19:53.695Z,71.70
2023-12-20T19:21:55.717Z,71.70
2023-12-20T19:23:57.480Z,71.90
2023-12-20T19:26:00.218Z,72.00
2023-12-20T19:28:02.149Z,72.00
2023-12-20T19:30:04.296Z,71.80
2023-12-20T19:32:06.328Z,71.70
2023-12-20T19:34:08.246Z,71.70
2023-12-20T19:36:13.659Z,71.60
2023-12-20T19:38:17.060Z,71.50
2023-12-20T19:40:19.212Z,71.40
2023-12-20T19:42:21.141Z,71.40
2023-12-20T19:44:23.015Z,71.50
2023-12-20T19:46:25.378Z,71.50
2023-12-20T19:48:27.667Z,71.50
2023-12-20T19:50:29.595Z,71.60
2023-12-20T19:52:31.542Z,71.60
2023-12-20T19:54:33.576Z,71.80
2023-12-20T19:56:35.397Z,72.10
2023-12-20T19:58:37.387Z,72.00
2023-12-20T20:00:46.217Z,71.70
2023-12-20T20:02:55.133Z,71.80
2023-12-20T20:04:57.130Z,71.70
2023-12-20T20:06:59.053Z,71.70
2023-12-20T20:09:01.087Z,71.70
2023-12-20T20:11:02.872Z,71.80
2023-12-20T20:13:04.806Z,72.00
2023-12-20T20:15:07.042Z,71.90
2023-12-20T20:17:10.284Z,71.70
2023-12-20T20:19:12.393Z,71.50
2023-12-20T20:21:14.273Z,71.60
2023-12-20T20:23:16.115Z,71.80
2023-12-20T20:25:17.952Z,71.80
2023-12-20T20:27:22.861Z,71.70
2023-12-20T20:29:24.715Z,71.80
2023-12-20T20:31:28.677Z,71.90
2023-12-20T20:33:30.737Z,72.00
2023-12-20T20:35:32.628Z,72.10
2023-12-20T20:37:34.571Z,72.00
2023-12-20T20:39:37.038Z,72.10
2023-12-20T20:41:38.942Z,72.10
2023-12-20T20:43:43.060Z,72.00
2023-12-20T20:45:46.645Z,71.90
2023-12-20T20:48:10.897Z,71.70
2023-12-20T20:50:24.108Z,71.70
2023-12-20T20:52:26.077Z,71.80
2023-12-20T20:54:27.864Z,71.70
2023-12-20T20:56:29.769Z,71.70
2023-12-20T20:58:31.939Z,71.80
2023-12-20T21:00:33.969Z,71.80
2023-12-20T21:02:35.999Z,71.90
2023-12-20T21:04:37.902Z,72.10
2023-12-20T21:06:39.832Z,71.80
2023-12-20T21:08:44.660Z,71.80
2023-12-20T21:11:00.527Z,71.80
2023-12-20T21:13:02.659Z,71.80
2023-12-20T21:15:05.306Z,71.90
2023-12-20T21:17:07.219Z,71.90
2023-12-20T21:19:09.262Z,72.00
2023-12-20T21:21:11.599Z,72.10
2023-12-20T21:23:13.456Z,72.10
2023-12-20T21:25:15.350Z,72.00
2023-12-20T21:27:17.202Z,72.10
2023-12-20T21:29:19.021Z,72.00
2023-12-20T21:31:20.923Z,72.00
2023-12-20T21:33:22.900Z,72.20
2023-12-20T21:35:24.878Z,72.40
2023-12-20T21:37:26.782Z,72.50
2023-12-20T21:39:30.522Z,72.40
2023-12-20T21:41:32.522Z,72.40
2023-12-20T21:43:37.601Z,72.50
2023-12-20T21:45:39.569Z,72.50
2023-12-20T21:47:43.932Z,72.60
2023-12-20T21:49:46.974Z,72.50
2023-12-20T21:51:48.828Z,72.70
2023-12-20T21:53:50.661Z,72.40
2023-12-20T21:55:52.636Z,72.40
2023-12-20T21:57:54.571Z,72.30
2023-12-20T21:59:56.473Z,72.20
2023-12-20T22:01:58.470Z,72.20
2023-12-20T22:04:00.434Z,72.40
2023-12-20T22:06:02.797Z,72.20
2023-12-20T22:08:13.597Z,72.20
2023-12-20T22:10:15.810Z,72.40
2023-12-20T22:12:17.660Z,72.50
2023-12-20T22:14:19.574Z,72.30
2023-12-20T22:16:22.595Z,72.20
2023-12-20T22:18:30.566Z,72.20
2023-12-20T22:20:32.685Z,72.20
2023-12-20T22:22:34.645Z,72.10
2023-12-20T22:24:36.609Z,72.30
2023-12-20T22:26:38.645Z,72.40
2023-12-20T22:28:40.538Z,72.60
2023-12-20T22:30:42.423Z,72.50
2023-12-20T22:32:44.362Z,72.50
2023-12-20T22:34:46.197Z,72.50
2023-12-20T22:36:48.071Z,72.60
2023-12-20T22:38:50.740Z,72.60
2023-12-20T22:40:52.553Z,72.60
2023-12-20T22:42:54.654Z,72.70
2023-12-20T22:44:56.623Z,72.80
2023-12-20T22:46:58.491Z,72.80
2023-12-20T22:49:00.347Z,72.80
2023-12-20T22:51:02.175Z,72.70
2023-12-20T22:53:04.033Z,72.70
2023-12-20T22:55:07.127Z,72.70
2023-12-20T22:57:09.896Z,72.70
2023-12-20T22:59:14.365Z,72.80
2023-12-20T23:01:17.614Z,72.80
2023-12-20T23:03:19.417Z,72.70
2023-12-20T23:05:21.449Z,72.70
2023-12-20T23:07:23.350Z,73.00
2023-12-20T23:09:25.209Z,73.20
2023-12-20T23:11:26.931Z,74.00
2023-12-20T23:13:28.747Z,73.30
2023-12-20T23:15:30.574Z,73.30
2023-12-20T23:17:32.450Z,73.20
2023-12-20T23:19:34.505Z,73.10
2023-12-20T23:21:36.364Z,73.10
2023-12-20T23:23:38.049Z,73.10
2023-12-20T23:25:39.876Z,73.10
2023-12-20T23:27:44.320Z,73.00
2023-12-20T23:29:46.278Z,73.00
2023-12-20T23:31:48.051Z,73.00
2023-12-20T23:33:49.902Z,73.00
2023-12-20T23:35:51.810Z,73.10
2023-12-20T23:37:53.570Z,73.20
2023-12-20T23:39:55.325Z,73.40
2023-12-20T23:41:57.100Z,73.40
2023-12-20T23:43:58.843Z,73.50
2023-12-20T23:46:00.572Z,73.40
2023-12-20T23:48:02.411Z,73.10
2023-12-20T23:50:04.828Z,73.10
2023-12-20T23:52:06.708Z,73.20
2023-12-20T23:54:08.442Z,73.30
2023-12-20T23:56:12.018Z,73.10
2023-12-20T23:58:15.365Z,73.30
